LBT91P GMMX-DTTG
Flight info
| Callsign | LBT91P |
|---|---|
| Flight time | N/A |
| Altitude | 38000 |
| Route | OBOGA3D/10 OBOGA DCT AGOVA UL102 ERA/N0449F370 UH119 BRF DCT BAY UJ24 GHA UG859 CITER UJ65 TGU UJ28 ELO UG361 TON DCT GAB |
| Aircraft | A319/M-SDE3FGHIRWY/LB1 |
Departure
| Time | N/A |
|---|---|
| Airport | Marrakesh Menara Airport (GMMX) |
Arrival
| Time | 2026-04-20 21:04 |
|---|---|
| Airport | Gabès Matmata International Airport (DTTG) |
| Time | Latitude | Longitude | Altitude | Speed | Heading |
|---|---|---|---|---|---|
| 2026-04-20 20:33 | 33.61100 | 7.08060 | 36975 ft | 477 kts | 68° |
| 2026-04-20 20:34 | 33.62457 | 7.12113 | 36968 ft | 477 kts | 68° |
| 2026-04-20 20:35 | 33.64922 | 7.19499 | 36966 ft | 475 kts | 68° |
| 2026-04-20 20:35 | 33.67375 | 7.26869 | 36967 ft | 476 kts | 68° |
| 2026-04-20 20:36 | 33.69831 | 7.34274 | 36970 ft | 477 kts | 68° |
| 2026-04-20 20:36 | 33.72281 | 7.41682 | 36972 ft | 477 kts | 68° |
| 2026-04-20 20:37 | 33.74720 | 7.49075 | 36969 ft | 476 kts | 68° |
| 2026-04-20 20:37 | 33.77139 | 7.56492 | 36969 ft | 478 kts | 68° |
| 2026-04-20 20:38 | 33.79540 | 7.63963 | 36971 ft | 478 kts | 68° |
| 2026-04-20 20:38 | 33.81923 | 7.71430 | 36972 ft | 477 kts | 68° |
| 2026-04-20 20:39 | 33.84294 | 7.78884 | 36976 ft | 478 kts | 68° |
| 2026-04-20 20:39 | 33.86653 | 7.86324 | 36985 ft | 480 kts | 68° |
| 2026-04-20 20:40 | 33.89029 | 7.93833 | 36993 ft | 479 kts | 68° |
| 2026-04-20 20:40 | 33.91395 | 8.01331 | 36995 ft | 479 kts | 68° |
| 2026-04-20 20:41 | 33.93424 | 8.08962 | 37002 ft | 480 kts | 84° |
| 2026-04-20 20:41 | 33.93285 | 8.16223 | 36895 ft | 481 kts | 96° |
| 2026-04-20 20:42 | 33.92950 | 8.20227 | 36516 ft | 480 kts | 97° |
| 2026-04-20 20:42 | 33.92567 | 8.24207 | 35718 ft | 479 kts | 97° |
| 2026-04-20 20:42 | 33.92153 | 8.28192 | 34716 ft | 479 kts | 98° |
| 2026-04-20 20:42 | 33.91724 | 8.32167 | 33690 ft | 479 kts | 98° |
| 2026-04-20 20:43 | 33.91289 | 8.36147 | 32467 ft | 480 kts | 98° |
| 2026-04-20 20:43 | 33.90850 | 8.40142 | 31196 ft | 483 kts | 98° |
| 2026-04-20 20:43 | 33.90406 | 8.44157 | 29857 ft | 486 kts | 98° |
| 2026-04-20 20:43 | 33.89958 | 8.48194 | 28328 ft | 488 kts | 97° |
| 2026-04-20 20:44 | 33.89506 | 8.52246 | 26808 ft | 488 kts | 97° |
| 2026-04-20 20:44 | 33.89053 | 8.56295 | 25295 ft | 490 kts | 97° |
| 2026-04-20 20:44 | 33.88600 | 8.60326 | 24222 ft | 481 kts | 97° |
| 2026-04-20 20:44 | 33.88156 | 8.64274 | 23095 ft | 472 kts | 97° |
| 2026-04-20 20:45 | 33.87720 | 8.68157 | 21859 ft | 464 kts | 97° |
| 2026-04-20 20:45 | 33.87299 | 8.71922 | 20707 ft | 456 kts | 97° |
| 2026-04-20 20:45 | 33.86891 | 8.75583 | 19599 ft | 449 kts | 97° |
| 2026-04-20 20:45 | 33.86478 | 8.79277 | 18502 ft | 442 kts | 97° |
| 2026-04-20 20:46 | 33.86070 | 8.82915 | 17345 ft | 436 kts | 98° |
| 2026-04-20 20:46 | 33.85670 | 8.86444 | 16274 ft | 427 kts | 98° |
| 2026-04-20 20:46 | 33.85271 | 8.89945 | 15229 ft | 418 kts | 98° |
| 2026-04-20 20:46 | 33.84878 | 8.93382 | 14235 ft | 410 kts | 97° |
| 2026-04-20 20:47 | 33.84492 | 8.96747 | 13178 ft | 402 kts | 97° |
| 2026-04-20 20:47 | 33.84111 | 9.00050 | 12113 ft | 395 kts | 97° |
| 2026-04-20 20:47 | 33.83729 | 9.03359 | 11626 ft | 398 kts | 97° |
| 2026-04-20 20:47 | 33.83352 | 9.06627 | 11283 ft | 390 kts | 97° |
| 2026-04-20 20:48 | 33.82981 | 9.09838 | 11111 ft | 388 kts | 97° |
| 2026-04-20 20:48 | 33.82616 | 9.12992 | 11035 ft | 366 kts | 97° |
| 2026-04-20 20:48 | 33.82278 | 9.15903 | 11008 ft | 336 kts | 97° |
| 2026-04-20 20:48 | 33.81967 | 9.18578 | 10991 ft | 310 kts | 97° |
| 2026-04-20 20:49 | 33.81676 | 9.21078 | 10984 ft | 299 kts | 97° |
| 2026-04-20 20:49 | 33.81389 | 9.23562 | 10984 ft | 301 kts | 97° |
| 2026-04-20 20:49 | 33.81099 | 9.26054 | 10989 ft | 300 kts | 97° |
| 2026-04-20 20:49 | 33.80811 | 9.28534 | 10966 ft | 300 kts | 97° |
| 2026-04-20 20:50 | 33.80523 | 9.31009 | 10678 ft | 298 kts | 97° |
| 2026-04-20 20:50 | 33.80237 | 9.33466 | 10164 ft | 296 kts | 97° |
| 2026-04-20 20:50 | 33.79951 | 9.35902 | 9645 ft | 293 kts | 97° |
| 2026-04-20 20:50 | 33.79668 | 9.38317 | 9058 ft | 291 kts | 97° |
| 2026-04-20 20:51 | 33.79388 | 9.40718 | 8500 ft | 290 kts | 97° |
| 2026-04-20 20:51 | 33.79110 | 9.43112 | 7932 ft | 288 kts | 98° |
| 2026-04-20 20:51 | 33.78833 | 9.45493 | 7394 ft | 286 kts | 98° |
| 2026-04-20 20:51 | 33.78557 | 9.47855 | 6869 ft | 285 kts | 98° |
| 2026-04-20 20:52 | 33.78279 | 9.50205 | 6358 ft | 283 kts | 98° |
| 2026-04-20 20:52 | 33.78003 | 9.52535 | 5817 ft | 281 kts | 98° |
| 2026-04-20 20:52 | 33.77725 | 9.54854 | 5310 ft | 279 kts | 99° |
| 2026-04-20 20:52 | 33.77449 | 9.57152 | 4839 ft | 277 kts | 98° |
| 2026-04-20 20:53 | 33.77173 | 9.59433 | 4381 ft | 275 kts | 99° |
| 2026-04-20 20:53 | 33.76895 | 9.61691 | 3944 ft | 273 kts | 99° |
| 2026-04-20 20:53 | 33.76622 | 9.63945 | 3487 ft | 271 kts | 99° |
| 2026-04-20 20:53 | 33.76356 | 9.66153 | 3004 ft | 270 kts | 99° |
| 2026-04-20 20:54 | 33.76094 | 9.68366 | 2551 ft | 266 kts | 99° |
| 2026-04-20 20:54 | 33.75837 | 9.70544 | 2130 ft | 262 kts | 99° |
| 2026-04-20 20:54 | 33.75579 | 9.72706 | 1668 ft | 259 kts | 99° |
| 2026-04-20 20:54 | 33.75320 | 9.74856 | 1305 ft | 264 kts | 99° |
| 2026-04-20 20:55 | 33.75058 | 9.76987 | 1142 ft | 254 kts | 99° |
| 2026-04-20 20:55 | 33.74808 | 9.79080 | 1067 ft | 252 kts | 99° |
| 2026-04-20 20:55 | 33.74549 | 9.81174 | 1045 ft | 251 kts | 99° |
| 2026-04-20 20:55 | 33.74295 | 9.83267 | 1038 ft | 253 kts | 99° |
| 2026-04-20 20:56 | 33.74040 | 9.85333 | 1018 ft | 253 kts | 99° |
| 2026-04-20 20:56 | 33.73802 | 9.87256 | 997 ft | 241 kts | 99° |
| 2026-04-20 20:56 | 33.73570 | 9.89154 | 985 ft | 220 kts | 99° |
| 2026-04-20 20:56 | 33.73585 | 9.90884 | 987 ft | 198 kts | 73° |
| 2026-04-20 20:57 | 33.74101 | 9.92365 | 1001 ft | 192 kts | 65° |
| 2026-04-20 20:57 | 33.74715 | 9.93784 | 1018 ft | 189 kts | 63° |
| 2026-04-20 20:57 | 33.75388 | 9.95165 | 1019 ft | 191 kts | 61° |
| 2026-04-20 20:57 | 33.76107 | 9.96495 | 1018 ft | 194 kts | 58° |
| 2026-04-20 20:58 | 33.76887 | 9.97796 | 1026 ft | 192 kts | 55° |
| 2026-04-20 20:58 | 33.77734 | 9.99063 | 1091 ft | 195 kts | 52° |
| 2026-04-20 20:58 | 33.78696 | 10.00208 | 1046 ft | 196 kts | 42° |
| 2026-04-20 20:58 | 33.79803 | 10.01111 | 1020 ft | 194 kts | 31° |
| 2026-04-20 20:59 | 33.80616 | 10.01596 | 1004 ft | 197 kts | 26° |
| 2026-04-20 20:59 | 33.81889 | 10.02173 | 996 ft | 195 kts | 19° |
| 2026-04-20 20:59 | 33.83538 | 10.02951 | 985 ft | 179 kts | 42° |
| 2026-04-20 20:59 | 33.84002 | 10.03719 | 974 ft | 164 kts | 74° |
| 2026-04-20 21:00 | 33.83719 | 10.05360 | 995 ft | 154 kts | 136° |
| 2026-04-20 21:00 | 33.83085 | 10.05746 | 990 ft | 156 kts | 170° |
| 2026-04-20 21:00 | 33.82054 | 10.05394 | 995 ft | 161 kts | 218° |
| 2026-04-20 21:00 | 33.81330 | 10.04356 | 993 ft | 164 kts | 230° |
| 2026-04-20 21:01 | 33.80630 | 10.03278 | 967 ft | 160 kts | 229° |
| 2026-04-20 21:01 | 33.79821 | 10.02339 | 993 ft | 161 kts | 212° |
| 2026-04-20 21:01 | 33.78797 | 10.01790 | 1003 ft | 160 kts | 194° |
| 2026-04-20 21:01 | 33.77876 | 10.01055 | 1006 ft | 167 kts | 225° |
| 2026-04-20 21:02 | 33.77255 | 9.99923 | 884 ft | 166 kts | 247° |
| 2026-04-20 21:02 | 33.76929 | 9.98663 | 722 ft | 148 kts | 240° |
| 2026-04-20 21:02 | 33.76307 | 9.97733 | 533 ft | 144 kts | 233° |
| 2026-04-20 21:02 | 33.75895 | 9.96753 | 556 ft | 146 kts | 241° |
| 2026-04-20 21:03 | 33.75429 | 9.95731 | 562 ft | 140 kts | 233° |
| 2026-04-20 21:03 | 33.74825 | 9.94780 | 568 ft | 145 kts | 226° |
| 2026-04-20 21:03 | 33.74229 | 9.93850 | 470 ft | 132 kts | 233° |
| 2026-04-20 21:03 | 33.73803 | 9.92966 | 391 ft | 113 kts | 238° |
| 2026-04-20 21:04 | 33.73524 | 9.92300 | 402 ft | 69 kts | 243° |
| 2026-04-20 21:04 | 33.73317 | 9.91838 | 403 ft | 53 kts | 243° |
| 2026-04-20 21:04 | 33.73251 | 9.91650 | 408 ft | 1 kts | 276° |
| 2026-04-20 21:04 | 33.73255 | 9.91634 | 408 ft | 3 kts | 290° |
| 2026-04-20 21:05 | 33.73272 | 9.91603 | 406 ft | 6 kts | 311° |
| 2026-04-20 21:05 | 33.73313 | 9.91577 | 405 ft | 5 kts | 343° |
| 2026-04-20 21:05 | 33.73351 | 9.91547 | 408 ft | 10 kts | 330° |
| 2026-04-20 21:05 | 33.73402 | 9.91515 | 407 ft | 9 kts | 334° |
| 2026-04-20 21:06 | 33.73478 | 9.91482 | 407 ft | 13 kts | 352° |
| 2026-04-20 21:06 | 33.73569 | 9.91494 | 407 ft | 12 kts | 356° |
| 2026-04-20 21:06 | 33.73608 | 9.91480 | 407 ft | 0 kts | 339° |